createdAt,value
2023-04-11T00:00:24.371Z,63.36
2023-04-11T00:01:24.355Z,63.47
2023-04-11T00:02:24.432Z,63.47
2023-04-11T00:03:24.684Z,63.47
2023-04-11T00:04:24.335Z,63.47
2023-04-11T00:05:24.286Z,63.47
2023-04-11T00:06:24.304Z,63.47
2023-04-11T00:07:24.260Z,63.47
2023-04-11T00:08:24.273Z,63.47
2023-04-11T00:09:24.234Z,63.47
2023-04-11T00:10:24.429Z,63.47
2023-04-11T00:11:24.239Z,63.47
2023-04-11T00:12:24.191Z,63.47
2023-04-11T00:13:24.183Z,63.47
2023-04-11T00:14:24.168Z,63.47
2023-04-11T00:15:59.179Z,63.47
2023-04-11T00:16:59.090Z,63.47
2023-04-11T00:17:59.094Z,63.47
2023-04-11T00:18:59.066Z,63.47
2023-04-11T00:19:59.055Z,63.57
2023-04-11T00:20:59.048Z,63.60
2023-04-11T00:21:59.027Z,63.60
2023-04-11T00:22:59.012Z,63.57
2023-04-11T00:23:59.002Z,63.57
2023-04-11T00:24:58.987Z,63.57
2023-04-11T00:25:58.980Z,63.57
2023-04-11T00:26:58.985Z,63.57
2023-04-11T00:27:58.948Z,63.57
2023-04-11T00:28:58.935Z,63.60
2023-04-11T00:29:58.919Z,63.50
2023-04-11T00:30:58.905Z,63.57
2023-04-11T00:31:58.966Z,63.57
2023-04-11T00:32:58.927Z,63.57
2023-04-11T00:33:58.866Z,63.57
2023-04-11T00:34:58.850Z,63.60
2023-04-11T00:35:58.934Z,63.57
2023-04-11T00:36:58.854Z,63.60
2023-04-11T00:37:58.810Z,63.60
2023-04-11T00:38:58.846Z,63.60
2023-04-11T00:39:58.785Z,63.60
2023-04-11T00:40:58.773Z,63.60
2023-04-11T00:41:58.760Z,63.60
2023-04-11T00:42:58.770Z,63.60
2023-04-11T00:43:58.731Z,63.60
2023-04-11T00:44:58.716Z,63.70
2023-04-11T00:45:58.741Z,63.70
2023-04-11T00:46:58.687Z,63.60
2023-04-11T00:47:58.743Z,63.70
2023-04-11T00:48:58.771Z,63.70
2023-04-11T00:49:58.650Z,63.70
2023-04-11T00:50:58.638Z,63.70
2023-04-11T00:51:58.622Z,63.70
2023-04-11T00:52:58.612Z,63.70
2023-04-11T00:53:58.597Z,63.70
2023-04-11T00:54:58.588Z,63.70
2023-04-11T00:55:58.568Z,63.70
2023-04-11T00:56:58.557Z,63.70
2023-04-11T00:57:58.542Z,63.60
2023-04-11T00:58:58.558Z,63.60
2023-04-11T00:59:58.516Z,63.60
2023-04-11T01:00:58.539Z,63.60
2023-04-11T01:01:58.684Z,63.60
2023-04-11T01:02:58.706Z,63.60
2023-04-11T01:03:58.634Z,63.60
2023-04-11T01:04:58.452Z,63.60
2023-04-11T01:05:58.435Z,63.60
2023-04-11T01:06:58.430Z,63.60
2023-04-11T01:07:58.412Z,63.60
2023-04-11T01:08:58.546Z,63.60
2023-04-11T01:09:58.386Z,63.60
2023-04-11T01:10:58.374Z,63.60
2023-04-11T01:11:58.358Z,63.70
2023-04-11T01:12:58.346Z,63.60
2023-04-11T01:13:58.343Z,63.60
2023-04-11T01:14:58.355Z,63.60
2023-04-11T01:15:58.305Z,63.60
2023-04-11T01:16:58.403Z,63.70
2023-04-11T01:17:58.284Z,63.70
2023-04-11T01:18:58.272Z,63.70
2023-04-11T01:19:58.251Z,63.70
2023-04-11T01:20:58.244Z,63.70
2023-04-11T01:21:58.225Z,63.70
2023-04-11T01:22:58.217Z,63.70
2023-04-11T01:23:58.199Z,63.70
2023-04-11T01:24:58.205Z,63.70
2023-04-11T01:25:58.173Z,63.70
2023-04-11T01:26:58.162Z,63.70
2023-04-11T01:27:58.147Z,63.70
2023-04-11T01:28:58.260Z,63.70
2023-04-11T01:29:58.118Z,63.70
2023-04-11T01:30:58.172Z,63.70
2023-04-11T01:31:58.096Z,63.70
2023-04-11T01:32:58.170Z,63.70
2023-04-11T01:33:58.066Z,63.70
2023-04-11T01:34:58.081Z,63.70
2023-04-11T01:35:58.096Z,63.70
2023-04-11T01:36:58.026Z,63.70
2023-04-11T01:37:58.011Z,63.70
2023-04-11T01:38:58.098Z,63.70
2023-04-11T01:39:57.988Z,63.70
2023-04-11T01:40:57.970Z,63.80
2023-04-11T01:41:57.995Z,63.80
2023-04-11T01:42:57.953Z,63.80
2023-04-11T01:43:57.929Z,63.90
2023-04-11T01:44:57.926Z,63.90
2023-04-11T01:45:57.901Z,63.90
2023-04-11T01:46:57.912Z,64.01
2023-04-11T01:47:57.942Z,63.90
2023-04-11T01:48:58.138Z,64.01
2023-04-11T01:49:57.845Z,64.01
2023-04-11T01:50:57.850Z,64.01
2023-04-11T01:51:57.818Z,64.01
2023-04-11T01:52:57.806Z,64.11
2023-04-11T01:53:57.803Z,64.11
2023-04-11T01:54:57.786Z,64.01
2023-04-11T01:55:57.763Z,64.11
2023-04-11T01:56:57.765Z,64.11
2023-04-11T01:57:57.750Z,64.11
2023-04-11T01:58:58.034Z,64.01
2023-04-11T01:59:57.766Z,64.01
2023-04-11T02:00:57.715Z,64.01
2023-04-11T02:01:57.815Z,64.01
2023-04-11T02:02:57.836Z,64.01
2023-04-11T02:03:57.804Z,64.21
2023-04-11T02:04:57.645Z,64.11
2023-04-11T02:05:57.635Z,64.11
2023-04-11T02:06:57.622Z,64.11
2023-04-11T02:07:57.604Z,64.21
2023-04-11T02:08:57.782Z,64.21
2023-04-11T02:09:57.578Z,64.31
2023-04-11T02:10:57.576Z,64.21
2023-04-11T02:11:57.554Z,64.21
2023-04-11T02:12:57.540Z,64.31
2023-04-11T02:13:57.524Z,64.21
2023-04-11T02:14:57.520Z,64.21
2023-04-11T02:15:57.543Z,64.21
2023-04-11T02:16:57.510Z,64.11
2023-04-11T02:17:57.539Z,64.11
2023-04-11T02:18:57.748Z,64.11
2023-04-11T02:19:57.454Z,64.01
2023-04-11T02:20:57.432Z,64.11
2023-04-11T02:21:57.420Z,64.11
2023-04-11T02:22:57.407Z,64.01
2023-04-11T02:23:57.396Z,64.01
2023-04-11T02:24:57.395Z,64.11
2023-04-11T02:25:57.365Z,64.11
2023-04-11T02:26:57.352Z,64.11
2023-04-11T02:27:57.339Z,64.11
2023-04-11T02:28:57.551Z,64.11
2023-04-11T02:29:57.309Z,64.21
2023-04-11T02:30:57.403Z,64.21
2023-04-11T02:31:57.382Z,64.21
2023-04-11T02:32:57.325Z,64.21
2023-04-11T02:33:57.255Z,64.21
2023-04-11T02:34:57.269Z,64.21
2023-04-11T02:35:57.239Z,64.21
2023-04-11T02:36:57.222Z,64.21
2023-04-11T02:37:57.202Z,64.21
2023-04-11T02:38:57.388Z,64.21
2023-04-11T02:39:57.176Z,64.21
2023-04-11T02:40:57.164Z,64.21
2023-04-11T02:41:57.152Z,64.11
2023-04-11T02:42:57.144Z,64.11
2023-04-11T02:43:57.122Z,64.11
2023-04-11T02:44:57.112Z,64.11
2023-04-11T02:46:09.602Z,64.11
2023-04-11T02:46:58.161Z,64.11
2023-04-11T02:47:57.105Z,64.11
2023-04-11T02:48:57.404Z,64.11
2023-04-11T02:49:57.044Z,64.21
2023-04-11T02:50:57.065Z,64.11
2023-04-11T02:51:57.017Z,64.11
2023-04-11T02:52:57.006Z,64.11
2023-04-11T02:53:56.995Z,64.11
2023-04-11T02:54:56.977Z,64.11
2023-04-11T02:55:56.962Z,64.11
2023-04-11T02:56:56.951Z,64.11
2023-04-11T02:57:56.935Z,64.11
2023-04-11T02:58:57.280Z,64.11
2023-04-11T02:59:56.909Z,64.21
2023-04-11T03:00:56.897Z,64.11
2023-04-11T03:01:56.983Z,64.21
2023-04-11T03:02:57.093Z,64.21
2023-04-11T03:03:56.982Z,64.21
2023-04-11T03:04:56.849Z,64.21
2023-04-11T03:05:56.830Z,64.11
2023-04-11T03:06:56.839Z,64.21
2023-04-11T03:07:56.802Z,64.11
2023-04-11T03:08:57.056Z,64.21
2023-04-11T03:09:56.772Z,64.21
2023-04-11T03:10:56.769Z,64.21
2023-04-11T03:11:56.744Z,64.21
2023-04-11T03:12:56.734Z,64.21
2023-04-11T03:13:56.746Z,64.21
2023-04-11T03:15:02.730Z,64.21
2023-04-11T03:15:56.753Z,64.21
2023-04-11T03:16:56.685Z,64.21
2023-04-11T03:18:31.622Z,64.21
2023-04-11T03:19:37.613Z,64.21
2023-04-11T03:22:48.432Z,64.21
2023-04-11T03:23:48.392Z,64.21
2023-04-11T03:24:48.380Z,64.21
2023-04-11T03:25:48.367Z,64.21
2023-04-11T03:26:48.354Z,64.21
2023-04-11T03:27:48.341Z,64.21
2023-04-11T03:28:48.328Z,64.21
2023-04-11T03:29:48.316Z,64.21
2023-04-11T03:30:48.303Z,64.21
2023-04-11T03:31:48.344Z,64.21
2023-04-11T03:32:48.333Z,64.21
2023-04-11T03:33:48.263Z,64.21
2023-04-11T03:34:48.251Z,64.21
2023-04-11T03:35:48.256Z,64.21
2023-04-11T03:36:48.222Z,64.21
2023-04-11T03:37:48.208Z,64.21
2023-04-11T03:38:48.220Z,64.21
2023-04-11T03:39:48.185Z,64.21
2023-04-11T03:40:48.178Z,64.21
2023-04-11T03:41:48.159Z,64.21
2023-04-11T03:42:48.145Z,64.21
2023-04-11T03:43:48.133Z,64.21
2023-04-11T03:44:48.120Z,64.21
2023-04-11T03:45:48.117Z,64.21
2023-04-11T03:46:48.120Z,64.21
2023-04-11T03:47:48.126Z,64.31
2023-04-11T03:48:48.070Z,64.31
2023-04-11T03:49:48.051Z,64.31
2023-04-11T03:50:48.040Z,64.31
2023-04-11T03:51:48.025Z,64.31
2023-04-11T03:52:48.009Z,64.31
2023-04-11T03:53:48.000Z,64.31
2023-04-11T03:54:48.044Z,64.31
2023-04-11T03:55:47.973Z,64.31
2023-04-11T03:56:47.957Z,64.31
2023-04-11T03:57:47.948Z,64.31
2023-04-11T03:58:47.953Z,64.31
2023-04-11T03:59:47.932Z,64.31
2023-04-11T04:00:47.903Z,64.31
2023-04-11T04:01:47.931Z,64.31
2023-04-11T04:02:48.031Z,64.31
2023-04-11T04:03:48.083Z,64.31
2023-04-11T04:04:47.887Z,64.31
2023-04-11T04:05:53.853Z,64.31
2023-04-11T04:06:47.830Z,64.31
2023-04-11T04:07:47.817Z,64.42
2023-04-11T04:08:47.800Z,64.42
2023-04-11T04:09:47.787Z,64.31
2023-04-11T04:10:47.798Z,64.31
2023-04-11T04:11:47.758Z,64.31
2023-04-11T04:12:47.753Z,64.42
2023-04-11T04:13:47.732Z,64.31
2023-04-11T04:14:47.720Z,64.31
2023-04-11T04:15:47.713Z,64.31
2023-04-11T04:16:47.718Z,64.42
2023-04-11T04:17:47.723Z,64.42
2023-04-11T04:18:47.663Z,64.42
2023-04-11T04:19:47.655Z,64.42
2023-04-11T04:20:47.635Z,64.42
2023-04-11T04:21:47.629Z,64.42
2023-04-11T04:22:47.615Z,64.42
2023-04-11T04:23:47.827Z,64.42
2023-04-11T04:24:47.590Z,64.42
2023-04-11T04:25:47.574Z,64.42
2023-04-11T04:26:47.594Z,64.42
2023-04-11T04:27:47.554Z,64.42
2023-04-11T04:28:47.531Z,64.52
2023-04-11T04:29:48.427Z,64.42
2023-04-11T04:30:48.547Z,64.42
2023-04-11T04:31:47.533Z,64.52
2023-04-11T04:32:53.501Z,64.52
2023-04-11T04:33:47.467Z,64.52
2023-04-11T04:34:47.455Z,64.52
2023-04-11T04:35:47.487Z,64.52
2023-04-11T04:36:47.428Z,64.52
2023-04-11T04:37:47.416Z,64.52
2023-04-11T04:38:53.407Z,64.42
2023-04-11T04:39:47.389Z,64.52
2023-04-11T04:40:49.671Z,64.52
2023-04-11T04:42:22.342Z,64.42
2023-04-11T04:43:22.305Z,64.42
2023-04-11T04:44:22.296Z,64.42
2023-04-11T04:45:22.275Z,64.42
2023-04-11T04:47:31.192Z,64.52
2023-04-11T04:48:31.152Z,64.52
2023-04-11T04:49:37.145Z,64.52
2023-04-11T04:50:37.131Z,64.52
2023-04-11T04:51:37.117Z,64.52
2023-04-11T04:53:06.153Z,64.52
2023-04-11T04:54:06.139Z,64.52
2023-04-11T04:58:30.867Z,64.52
2023-04-11T04:59:30.831Z,64.52
2023-04-11T05:00:30.815Z,64.52
2023-04-11T05:01:30.841Z,64.52
2023-04-11T05:02:31.202Z,64.72
2023-04-11T05:03:31.001Z,64.72
2023-04-11T05:04:30.794Z,64.62
2023-04-11T05:05:30.752Z,64.62
2023-04-11T05:06:30.744Z,64.52
2023-04-11T05:07:30.733Z,64.52
2023-04-11T05:08:30.712Z,64.52
2023-04-11T05:09:30.699Z,64.52
2023-04-11T05:10:30.685Z,64.52
2023-04-11T05:11:30.691Z,64.52
2023-04-11T05:12:36.666Z,64.52
2023-04-11T05:13:36.677Z,64.52
2023-04-11T05:18:01.379Z,64.62
2023-04-11T05:18:55.343Z,64.62
2023-04-11T05:20:36.286Z,64.52
2023-04-11T05:21:30.269Z,64.52
2023-04-11T05:22:30.252Z,64.72
2023-04-11T05:23:30.238Z,64.62
2023-04-11T05:24:30.226Z,64.62
2023-04-11T05:25:30.217Z,64.62
2023-04-11T05:26:30.202Z,64.62
2023-04-11T05:27:30.184Z,64.62
2023-04-11T05:28:30.174Z,64.62
2023-04-11T05:29:30.186Z,64.52
2023-04-11T05:30:30.177Z,64.52
2023-04-11T05:31:30.133Z,64.62
2023-04-11T05:32:30.147Z,64.62
2023-04-11T05:33:30.105Z,64.72
2023-04-11T05:34:30.094Z,64.72
2023-04-11T05:35:30.231Z,64.72
2023-04-11T05:36:30.067Z,64.83
2023-04-11T05:37:30.054Z,64.83
2023-04-11T05:38:30.044Z,64.83
2023-04-11T05:39:30.033Z,64.72
2023-04-11T05:40:30.017Z,64.72
2023-04-11T05:41:30.006Z,64.72
2023-04-11T05:43:05.396Z,64.62
2023-04-11T05:44:05.386Z,64.72
2023-04-11T05:45:05.404Z,64.62
2023-04-11T05:46:11.399Z,64.62
2023-04-11T05:47:05.366Z,64.83
2023-04-11T05:48:05.351Z,64.83
2023-04-11T05:49:05.326Z,64.83
2023-04-11T05:50:05.317Z,64.83
2023-04-11T05:51:05.299Z,65.03
2023-04-11T05:52:05.290Z,65.03
2023-04-11T05:53:11.272Z,65.03
2023-04-11T05:54:05.252Z,64.93
2023-04-11T05:56:14.148Z,64.83
2023-04-11T05:57:14.129Z,64.83
2023-04-11T05:58:14.126Z,64.83
2023-04-11T05:59:14.106Z,64.93
2023-04-11T06:00:14.124Z,64.93
2023-04-11T06:01:14.080Z,65.03
2023-04-11T06:02:14.165Z,64.93
2023-04-11T06:03:14.171Z,65.13
2023-04-11T06:04:14.209Z,65.13
2023-04-11T06:05:14.120Z,65.13
2023-04-11T06:06:20.013Z,65.24
2023-04-11T06:07:14.008Z,65.24
2023-04-11T06:08:48.940Z,65.24
2023-04-11T06:09:48.923Z,65.24
2023-04-11T06:10:48.909Z,65.24
2023-04-11T06:11:48.895Z,65.24
2023-04-11T06:12:48.886Z,65.24
2023-04-11T06:13:48.870Z,65.24
2023-04-11T06:14:48.858Z,65.24
2023-04-11T06:15:48.920Z,65.34
2023-04-11T06:16:48.828Z,65.24
2023-04-11T06:21:13.535Z,65.34
2023-04-11T06:25:04.283Z,65.34
2023-04-11T06:26:11.487Z,65.44
2023-04-11T06:27:04.258Z,65.64
2023-04-11T06:29:47.103Z,65.24
2023-04-11T06:30:47.091Z,64.83
2023-04-11T06:32:22.181Z,64.93
2023-04-11T06:33:28.027Z,64.93
2023-04-11T06:34:22.011Z,64.93
2023-04-11T06:35:21.994Z,64.93
2023-04-11T06:36:21.980Z,64.83
2023-04-11T06:37:21.972Z,64.72
2023-04-11T06:38:21.959Z,64.72
2023-04-11T06:39:21.956Z,64.72
2023-04-11T06:40:21.931Z,64.72
2023-04-11T06:41:21.935Z,64.62
2023-04-11T06:42:21.902Z,64.62
2023-04-11T06:43:21.889Z,64.62
2023-04-11T06:44:21.928Z,64.52
2023-04-11T06:45:21.865Z,64.52
2023-04-11T06:46:21.928Z,64.62
2023-04-11T06:47:21.924Z,64.62
2023-04-11T06:48:21.848Z,64.62
2023-04-11T06:49:21.809Z,64.62
2023-04-11T06:50:21.815Z,64.62
2023-04-11T06:51:21.787Z,64.62
2023-04-11T06:52:21.773Z,64.52
2023-04-11T06:56:46.475Z,64.62
2023-04-11T06:57:46.583Z,64.52
2023-04-11T06:58:46.462Z,64.52
2023-04-11T06:59:46.432Z,64.52
2023-04-11T07:00:46.423Z,64.62
2023-04-11T07:01:46.535Z,64.62
2023-04-11T07:02:46.651Z,64.62
2023-04-11T07:03:46.586Z,64.62
2023-04-11T07:04:46.615Z,64.62
2023-04-11T07:05:46.356Z,64.72
2023-04-11T07:06:46.357Z,64.62
2023-04-11T07:07:46.333Z,64.62
2023-04-11T07:08:46.337Z,64.62
2023-04-11T07:09:46.302Z,64.72
2023-04-11T07:10:46.291Z,64.62
2023-04-11T07:11:46.295Z,64.62
2023-04-11T07:12:46.264Z,64.62
2023-04-11T07:13:46.252Z,64.62
2023-04-11T07:14:46.238Z,64.72
2023-04-11T07:15:46.258Z,64.83
2023-04-11T07:16:46.298Z,64.83
2023-04-11T07:17:46.295Z,64.83
2023-04-11T07:18:46.188Z,64.83
2023-04-11T07:19:46.201Z,64.83
2023-04-11T07:20:46.158Z,64.83
2023-04-11T07:21:46.147Z,64.72
2023-04-11T07:22:46.134Z,64.72
2023-04-11T07:23:46.122Z,64.72
2023-04-11T07:24:46.107Z,64.83
2023-04-11T07:25:46.095Z,64.93
2023-04-11T07:26:46.082Z,64.93
2023-04-11T07:27:46.099Z,65.13
2023-04-11T07:28:46.057Z,65.24
2023-04-11T07:29:46.045Z,65.24
2023-04-11T07:30:46.028Z,64.93
2023-04-11T07:31:46.042Z,64.93
2023-04-11T07:32:46.025Z,64.93
2023-04-11T07:33:46.007Z,64.93
2023-04-11T07:34:45.977Z,65.03
2023-04-11T07:35:46.051Z,64.93
2023-04-11T07:36:45.969Z,64.93
2023-04-11T07:37:45.937Z,64.72
2023-04-11T07:38:45.923Z,64.72
2023-04-11T07:39:45.908Z,64.83
2023-04-11T07:40:45.896Z,64.83
2023-04-11T07:41:45.885Z,64.72
2023-04-11T07:42:45.868Z,64.72
2023-04-11T07:43:45.841Z,64.72
2023-04-11T07:44:45.842Z,64.72
2023-04-11T07:45:45.887Z,64.72
2023-04-11T07:46:45.817Z,64.72
2023-04-11T07:47:45.895Z,64.72
2023-04-11T07:48:45.777Z,64.72
2023-04-11T07:49:45.776Z,64.62
2023-04-11T07:50:45.763Z,64.52
2023-04-11T07:51:45.780Z,64.52
2023-04-11T07:52:45.737Z,64.52
2023-04-11T07:53:45.729Z,64.42
2023-04-11T07:54:45.711Z,64.42
2023-04-11T07:55:45.699Z,64.42
2023-04-11T07:56:45.672Z,64.42
2023-04-11T07:57:45.672Z,64.31
2023-04-11T07:58:45.679Z,64.31
2023-04-11T07:59:45.656Z,64.31
2023-04-11T08:00:45.632Z,64.42
2023-04-11T08:01:45.754Z,64.21
2023-04-11T08:02:45.779Z,64.28
2023-04-11T08:03:45.761Z,64.28
2023-04-11T08:04:45.723Z,64.39
2023-04-11T08:05:45.587Z,64.18
2023-04-11T08:06:45.566Z,64.18
2023-04-11T08:07:45.601Z,64.18
2023-04-11T08:08:45.534Z,64.01
2023-04-11T08:09:45.520Z,64.01
2023-04-11T08:10:45.502Z,64.11
2023-04-11T08:11:45.492Z,63.90
2023-04-11T08:12:45.483Z,64.01
2023-04-11T08:13:45.468Z,64.01
2023-04-11T08:14:45.476Z,64.11
2023-04-11T08:15:45.471Z,64.01
2023-04-11T08:16:45.509Z,64.21
2023-04-11T08:17:45.446Z,64.31
2023-04-11T08:18:45.402Z,64.21
2023-04-11T08:19:45.392Z,64.18
2023-04-11T08:20:45.376Z,64.28
2023-04-11T08:21:45.368Z,64.39
2023-04-11T08:22:45.351Z,63.77
2023-04-11T08:23:46.509Z,64.18
2023-04-11T08:24:45.327Z,64.18
2023-04-11T08:25:45.322Z,63.98
2023-04-11T08:26:45.307Z,63.67
2023-04-11T08:27:45.290Z,63.57
2023-04-11T08:28:45.279Z,64.21
2023-04-11T08:29:45.259Z,63.98
2023-04-11T08:30:45.258Z,64.08
2023-04-11T08:31:45.235Z,63.60
2023-04-11T08:32:45.267Z,63.77
2023-04-11T08:33:45.211Z,63.60
2023-04-11T08:34:45.197Z,63.36
2023-04-11T08:35:45.236Z,63.60
2023-04-11T08:36:45.181Z,63.77
2023-04-11T08:37:45.157Z,63.77
2023-04-11T08:38:45.141Z,63.77
2023-04-11T08:39:45.153Z,63.87
2023-04-11T08:40:45.115Z,63.98
2023-04-11T08:41:45.109Z,64.08
2023-04-11T08:42:45.098Z,64.08
2023-04-11T08:43:45.076Z,64.08
2023-04-11T08:44:45.064Z,64.08
2023-04-11T08:45:45.086Z,63.98
2023-04-11T08:46:45.036Z,64.08
2023-04-11T08:47:45.940Z,63.98
2023-04-11T08:48:45.010Z,64.08
2023-04-11T08:49:44.996Z,64.08
2023-04-11T08:50:44.983Z,64.11
2023-04-11T08:51:44.975Z,64.11
2023-04-11T08:52:45.255Z,63.80
2023-04-11T08:53:44.948Z,64.11
2023-04-11T08:54:44.938Z,64.31
2023-04-11T08:55:44.942Z,64.42
2023-04-11T08:56:44.908Z,64.42
2023-04-11T08:57:44.906Z,64.42
2023-04-11T08:58:44.893Z,64.21
2023-04-11T08:59:44.865Z,64.21
2023-04-11T09:00:44.854Z,64.21
2023-04-11T09:01:45.173Z,64.11
2023-04-11T09:02:44.901Z,64.21
2023-04-11T09:03:44.921Z,64.21
2023-04-11T09:04:44.945Z,64.21
2023-04-11T09:05:44.799Z,64.21
2023-04-11T09:06:44.772Z,64.31
2023-04-11T09:07:44.762Z,64.21
2023-04-11T09:08:44.748Z,64.31
2023-04-11T09:09:44.740Z,64.31
2023-04-11T09:10:44.725Z,64.21
2023-04-11T09:11:44.731Z,64.21
2023-04-11T09:12:44.680Z,64.21
2023-04-11T09:13:44.682Z,64.21
2023-04-11T09:14:44.712Z,64.11
2023-04-11T09:15:44.680Z,64.11
2023-04-11T09:16:44.646Z,64.11
2023-04-11T09:17:44.657Z,64.11
2023-04-11T09:18:44.715Z,64.01
2023-04-11T09:19:46.838Z,64.01
2023-04-11T09:20:44.578Z,64.11
2023-04-11T09:21:44.580Z,64.01
2023-04-11T09:22:44.565Z,63.90
2023-04-11T09:23:44.551Z,63.90
2023-04-11T09:24:44.539Z,63.90
2023-04-11T09:25:44.530Z,63.80
2023-04-11T09:26:44.514Z,63.80
2023-04-11T09:27:44.524Z,63.90
2023-04-11T09:28:44.528Z,64.01
2023-04-11T09:29:44.476Z,63.90
2023-04-11T09:30:44.466Z,63.90
2023-04-11T09:31:44.538Z,63.90
2023-04-11T09:32:44.432Z,63.90
2023-04-11T09:33:44.424Z,64.01
2023-04-11T09:34:44.408Z,64.01
2023-04-11T09:35:44.445Z,64.01
2023-04-11T09:36:44.397Z,64.01
2023-04-11T09:37:44.377Z,63.90
2023-04-11T09:38:44.355Z,64.01
2023-04-11T09:39:44.344Z,64.01
2023-04-11T09:40:44.337Z,64.01
2023-04-11T09:41:44.350Z,64.11
2023-04-11T09:42:44.306Z,64.11
2023-04-11T09:43:44.322Z,64.11
2023-04-11T09:44:44.278Z,64.08
2023-04-11T09:45:53.691Z,64.01
2023-04-11T09:46:45.383Z,64.01
2023-04-11T09:47:44.859Z,64.11
2023-04-11T09:48:46.886Z,64.21
2023-04-11T09:49:44.215Z,64.21
2023-04-11T09:50:44.214Z,64.21
2023-04-11T09:51:44.189Z,64.21
2023-04-11T09:52:44.176Z,64.21
2023-04-11T09:53:44.162Z,64.21
2023-04-11T09:54:44.146Z,64.21
2023-04-11T09:55:44.135Z,64.21
2023-04-11T09:56:44.124Z,64.21
2023-04-11T09:57:44.110Z,64.21
2023-04-11T09:58:44.094Z,64.21
2023-04-11T09:59:44.157Z,64.21
2023-04-11T10:00:44.067Z,64.21
2023-04-11T10:01:44.203Z,64.31
2023-04-11T10:02:44.222Z,64.21
2023-04-11T10:03:44.076Z,64.31
2023-04-11T10:04:44.057Z,64.31
2023-04-11T10:05:44.006Z,64.31
2023-04-11T10:06:43.992Z,64.42
2023-04-11T10:07:43.979Z,64.42
2023-04-11T10:08:43.961Z,64.42
2023-04-11T10:09:43.955Z,64.42
2023-04-11T10:10:43.947Z,64.42
2023-04-11T10:11:43.926Z,64.42
2023-04-11T10:12:43.910Z,64.52
2023-04-11T10:13:43.908Z,64.52
2023-04-11T10:14:43.885Z,64.52
2023-04-11T10:15:43.899Z,64.52
2023-04-11T10:16:43.950Z,64.52
2023-04-11T10:17:43.902Z,64.52
2023-04-11T10:18:43.832Z,64.52
2023-04-11T10:19:43.830Z,64.52
2023-04-11T10:20:43.875Z,64.52
2023-04-11T10:21:43.793Z,64.52
2023-04-11T10:22:44.187Z,64.52
2023-04-11T10:23:43.774Z,64.52
2023-04-11T10:24:43.755Z,64.52
2023-04-11T10:25:43.745Z,64.52
2023-04-11T10:26:43.726Z,64.52
2023-04-11T10:27:43.719Z,64.52
2023-04-11T10:28:43.706Z,64.49
2023-04-11T10:29:43.690Z,64.49
2023-04-11T10:30:43.676Z,64.52
2023-04-11T10:31:43.800Z,64.39
2023-04-11T10:32:43.700Z,64.39
2023-04-11T10:33:43.639Z,64.52
2023-04-11T10:34:43.625Z,64.49
2023-04-11T10:35:43.649Z,64.31
2023-04-11T10:36:43.602Z,64.42
2023-04-11T10:37:43.586Z,64.52
2023-04-11T10:38:43.590Z,64.52
2023-04-11T10:39:43.566Z,64.31
2023-04-11T10:40:43.548Z,64.52
2023-04-11T10:41:43.534Z,64.52
2023-04-11T10:42:43.554Z,64.42
2023-04-11T10:43:43.508Z,64.42
2023-04-11T10:44:43.495Z,64.21
2023-04-11T10:45:43.480Z,64.42
2023-04-11T10:46:43.563Z,64.42
2023-04-11T10:47:43.551Z,64.31
2023-04-11T10:48:43.443Z,64.11
2023-04-11T10:49:45.420Z,64.31
2023-04-11T10:50:43.420Z,64.31
2023-04-11T10:51:43.405Z,63.90
2023-04-11T10:52:43.391Z,63.70
2023-04-11T10:53:43.381Z,63.90
2023-04-11T10:54:43.363Z,63.90
2023-04-11T10:55:43.350Z,63.67
2023-04-11T10:56:43.335Z,63.90
2023-04-11T10:57:43.322Z,63.67
2023-04-11T10:58:43.312Z,63.47
2023-04-11T10:59:43.296Z,63.36
2023-04-11T11:00:43.328Z,63.36
2023-04-11T11:02:43.481Z,62.75
2023-04-11T11:03:43.551Z,62.95
2023-04-11T11:04:43.366Z,62.75
2023-04-11T11:05:43.215Z,62.75
2023-04-11T11:06:51.019Z,62.44
2023-04-11T11:07:44.230Z,62.13
2023-04-11T11:08:43.182Z,62.24
2023-04-11T11:09:43.172Z,62.03
2023-04-11T11:10:43.186Z,61.93
2023-04-11T11:11:43.133Z,62.03
2023-04-11T11:12:43.144Z,62.13
2023-04-11T11:13:43.118Z,62.13
2023-04-11T11:14:43.100Z,62.34
2023-04-11T11:15:43.081Z,62.03
2023-04-11T11:16:43.441Z,61.83
2023-04-11T11:17:43.098Z,61.32
2023-04-11T11:18:43.049Z,61.32
2023-04-11T11:19:43.051Z,59.68
2023-04-11T11:20:43.016Z,59.99
2023-04-11T11:21:43.002Z,59.88
2023-04-11T11:22:42.994Z,60.29
2023-04-11T11:23:42.974Z,60.60
2023-04-11T11:24:42.968Z,60.91
2023-04-11T11:25:42.948Z,61.21
2023-04-11T11:26:42.942Z,61.32
2023-04-11T11:27:42.923Z,61.42
2023-04-11T11:28:42.912Z,61.52
2023-04-11T11:29:42.895Z,61.62
2023-04-11T11:30:42.886Z,61.83
2023-04-11T11:31:42.899Z,61.73
2023-04-11T11:32:42.873Z,61.73
2023-04-11T11:33:42.846Z,62.03
2023-04-11T11:34:42.832Z,61.62
2023-04-11T11:35:42.880Z,61.62
2023-04-11T11:36:42.829Z,61.42
2023-04-11T11:37:42.793Z,61.32
2023-04-11T11:38:42.783Z,61.42
2023-04-11T11:39:42.767Z,61.52
2023-04-11T11:40:42.754Z,61.59
2023-04-11T11:41:42.742Z,61.52
2023-04-11T11:42:42.723Z,61.49
2023-04-11T11:43:42.713Z,61.70
2023-04-11T11:44:42.700Z,61.73
2023-04-11T11:45:42.710Z,61.52
2023-04-11T11:46:42.694Z,61.73
2023-04-11T11:47:42.697Z,61.62
2023-04-11T11:48:42.654Z,61.73
2023-04-11T11:49:42.652Z,61.21
2023-04-11T11:50:42.633Z,61.32
2023-04-11T11:51:42.635Z,61.62
2023-04-11T11:52:42.595Z,61.62
2023-04-11T11:53:42.585Z,61.32
2023-04-11T11:54:42.581Z,61.09
2023-04-11T11:55:42.556Z,61.01
2023-04-11T11:56:48.553Z,60.98
2023-04-11T11:57:42.535Z,61.18
2023-04-11T11:58:42.525Z,61.09
2023-04-11T11:59:45.507Z,61.09
2023-04-11T12:00:42.504Z,60.98
2023-04-11T12:01:42.496Z,60.47
2023-04-11T12:02:43.035Z,60.77
2023-04-11T12:03:42.621Z,60.47
2023-04-11T12:04:42.668Z,60.68
2023-04-11T12:05:42.429Z,60.47
2023-04-11T12:06:42.418Z,60.47
2023-04-11T12:07:42.438Z,60.36
2023-04-11T12:08:42.392Z,60.26
2023-04-11T12:09:42.377Z,60.57
2023-04-11T12:10:43.863Z,60.36
2023-04-11T12:11:42.365Z,60.57
2023-04-11T12:12:42.333Z,60.47
2023-04-11T12:13:42.318Z,60.06
2023-04-11T12:14:42.310Z,59.96
2023-04-11T12:15:42.330Z,59.85
2023-04-11T12:16:42.282Z,60.16
2023-04-11T12:17:42.290Z,60.06
2023-04-11T12:18:42.262Z,60.16
2023-04-11T12:19:42.244Z,59.85
2023-04-11T12:20:42.229Z,59.14
2023-04-11T12:21:42.216Z,59.55
2023-04-11T12:22:42.202Z,59.35
2023-04-11T12:23:42.217Z,59.35
2023-04-11T12:24:42.180Z,59.24
2023-04-11T12:25:42.163Z,59.35
2023-04-11T12:26:57.386Z,59.44
2023-04-11T12:27:43.176Z,59.55
2023-04-11T12:28:42.127Z,59.55
2023-04-11T12:29:42.112Z,60.26
2023-04-11T12:30:42.099Z,60.06
2023-04-11T12:31:44.518Z,59.96
2023-04-11T12:32:42.162Z,60.09
2023-04-11T12:33:42.091Z,60.40
2023-04-11T12:34:42.063Z,60.36
2023-04-11T12:35:42.031Z,60.40
2023-04-11T12:36:42.021Z,60.16
2023-04-11T12:37:42.003Z,60.09
2023-04-11T12:38:41.993Z,60.06
2023-04-11T12:39:42.011Z,60.16
2023-04-11T12:40:41.966Z,60.36
2023-04-11T12:41:41.950Z,60.47
2023-04-11T12:42:53.477Z,60.06
2023-04-11T12:43:42.979Z,60.26
2023-04-11T12:44:41.916Z,60.19
2023-04-11T12:45:41.909Z,60.09
2023-04-11T12:46:41.902Z,60.19
2023-04-11T12:47:41.914Z,60.09
2023-04-11T12:48:41.859Z,60.09
2023-04-11T12:49:41.847Z,60.29
2023-04-11T12:50:41.852Z,60.19
2023-04-11T12:51:41.821Z,59.99
2023-04-11T12:52:41.836Z,59.99
2023-04-11T12:53:41.793Z,60.19
2023-04-11T12:54:41.785Z,60.19
2023-04-11T12:55:41.790Z,60.29
2023-04-11T12:56:41.757Z,60.29
2023-04-11T12:57:41.756Z,60.19
2023-04-11T12:58:41.731Z,60.09
2023-04-11T12:59:41.714Z,60.19
2023-04-11T13:00:41.702Z,60.09
2023-04-11T13:01:41.799Z,59.99
2023-04-11T13:02:44.376Z,60.19
2023-04-11T13:03:41.870Z,60.40
2023-04-11T13:04:41.857Z,60.09
2023-04-11T13:05:41.649Z,59.78
2023-04-11T13:06:41.625Z,59.68
2023-04-11T13:07:41.617Z,59.68
2023-04-11T13:08:41.599Z,59.58
2023-04-11T13:09:41.584Z,59.47
2023-04-11T13:10:41.574Z,59.58
2023-04-11T13:11:41.585Z,59.68
2023-04-11T13:12:41.839Z,59.68
2023-04-11T13:13:41.543Z,59.68
2023-04-11T13:14:41.519Z,59.78
2023-04-11T13:15:41.514Z,59.78
2023-04-11T13:16:41.536Z,59.78
2023-04-11T13:17:41.548Z,59.88
2023-04-11T13:18:41.468Z,59.88
2023-04-11T13:19:41.451Z,59.78
2023-04-11T13:20:41.440Z,59.88